Time;durP1;ratioP1;P1;durP2;ratioP2;P2;SDS_P1;SDS_P2;PMS_P1;PMS_P2;Temp;Humidity;BMP_temperature;BMP_pressure;BME280_temperature;BME280_humidity;BME280_pressure;Samples;Min_cycle;Max_cycle;Signal;HPM_P1;HPM_P2
2023/05/06 00:01:56;;;;;;;40.38;37.83;;;;;;;20.31;48.63;101488.28;4995551;28;20030;-71
2023/05/06 00:04:22;;;;;;;38.45;36.35;;;;;;;20.29;48.69;101491.31;4995689;28;20037;-71
2023/05/06 00:06:47;;;;;;;39.15;37.05;;;;;;;20.28;48.32;101497.88;4995158;28;20086;-71
2023/05/06 00:09:13;;;;;;;38.90;36.72;;;;;;;20.27;48.72;101495.44;4978316;28;20490;-71
2023/05/06 00:11:38;;;;;;;38.95;36.75;;;;;;;20.25;48.47;101492.97;4978111;28;20117;-71
2023/05/06 00:14:04;;;;;;;40.33;38.13;;;;;;;20.24;48.63;101496.03;4994778;28;20038;-71
2023/05/06 00:16:30;;;;;;;38.65;36.47;;;;;;;20.22;48.56;101499.06;4977651;28;20383;-71
2023/05/06 00:18:55;;;;;;;39.30;37.15;;;;;;;20.22;48.66;101493.56;4995560;28;20046;-71
2023/05/06 00:21:21;;;;;;;41.65;39.28;;;;;;;20.20;48.73;101490.28;4995274;28;20062;-72
2023/05/06 00:23:46;;;;;;;39.58;37.28;;;;;;;20.19;48.72;101483.19;4994978;28;20034;-72
2023/05/06 00:26:12;;;;;;;38.40;36.35;;;;;;;20.18;48.61;101483.47;4994610;28;20058;-71
2023/05/06 00:28:37;;;;;;;38.92;36.67;;;;;;;20.17;48.60;101498.28;4977654;28;20426;-71
2023/05/06 00:31:03;;;;;;;41.50;39.20;;;;;;;20.15;48.66;101486.78;4994751;28;20038;-72
2023/05/06 00:33:28;;;;;;;38.88;36.63;;;;;;;20.13;48.67;101487.06;4995302;28;20125;-71
2023/05/06 00:35:53;;;;;;;40.70;38.22;;;;;;;20.12;48.29;101487.38;4994669;28;20034;-71
2023/05/06 00:38:19;;;;;;;39.72;37.53;;;;;;;20.10;48.63;101480.22;4994997;28;20038;-71
2023/05/06 00:40:44;;;;;;;38.20;36.10;;;;;;;20.09;48.65;101478.59;4977334;28;20513;-71
2023/05/06 00:43:11;;;;;;;39.17;37.10;;;;;;;20.08;48.35;101481.63;4994617;28;20125;-71
2023/05/06 00:45:37;;;;;;;37.97;35.92;;;;;;;20.06;48.34;101484.69;4977778;28;20371;-71
2023/05/06 00:48:05;;;;;;;39.60;37.40;;;;;;;20.05;48.39;101482.22;4976988;28;20503;-71
2023/05/06 00:50:32;;;;;;;38.63;36.50;;;;;;;20.03;48.18;101479.78;4994580;28;20089;-71
2023/05/06 00:52:58;;;;;;;39.60;37.47;;;;;;;20.01;48.36;101473.75;4994473;28;20034;-71
2023/05/06 00:55:25;;;;;;;37.35;35.25;;;;;;;20.00;48.26;101474.84;4976976;28;20062;-71
2023/05/06 00:57:51;;;;;;;39.10;37.00;;;;;;;19.99;48.34;101473.22;4994446;28;20038;-72
2023/05/06 01:00:19;;;;;;;38.50;36.50;;;;;;;19.98;48.68;101487.22;4976774;28;20029;-71
2023/05/06 01:02:45;;;;;;;38.50;36.40;;;;;;;19.95;48.59;101483.13;4994167;28;20034;-71
2023/05/06 01:05:10;;;;;;;39.88;37.58;;;;;;;19.94;48.24;101481.50;4994410;28;20089;-70
2023/05/06 01:07:51;;;;;;;38.45;36.20;;;;;;;19.93;48.21;101468.88;4994581;28;20034;-71
2023/05/06 01:10:48;;;;;;;37.30;35.30;;;;;;;19.90;48.52;101472.19;4994267;28;20090;-72
2023/05/06 01:13:23;;;;;;;37.17;35.17;;;;;;;19.86;48.70;101469.22;4994475;28;20098;-71
2023/05/06 01:15:54;;;;;;;36.92;34.97;;;;;;;19.85;48.33;101466.75;4994196;28;20039;-71
2023/05/06 01:18:22;;;;;;;37.42;35.33;;;;;;;19.83;48.63;101458.00;4994118;28;20038;-72
2023/05/06 01:20:51;;;;;;;38.33;36.22;;;;;;;19.82;48.13;101465.41;4994103;28;20034;-71
2023/05/06 01:23:17;;;;;;;36.72;34.72;;;;;;;19.80;48.66;101456.66;4993969;28;20029;-72
2023/05/06 01:25:43;;;;;;;38.00;36.00;;;;;;;19.80;48.10;101464.06;4994316;28;20059;-71
2023/05/06 01:28:10;;;;;;;39.85;37.63;;;;;;;19.78;48.07;101461.63;4993654;28;20030;-71
2023/05/06 01:30:49;;;;;;;37.38;35.38;;;;;;;19.77;48.19;101459.97;4994024;28;20471;-71
2023/05/06 01:33:35;;;;;;;38.55;36.35;;;;;;;19.75;48.51;101467.66;4977007;28;20117;-71
2023/05/06 01:36:24;;;;;;;37.20;34.92;;;;;;;19.72;48.61;101467.44;4976501;28;20034;-71
2023/05/06 01:39:08;;;;;;;;;;;;;;;19.70;48.25;101470.44;4977637;28;20041;-70
2023/05/06 01:41:37;;;;;;;36.22;34.33;;;;;;;19.65;48.69;101470.44;4993922;28;19956;-70
2023/05/06 01:44:04;;;;;;;36.67;34.67;;;;;;;19.63;48.67;101470.75;4993716;28;20026;-71
2023/05/06 01:46:31;;;;;;;35.80;33.80;;;;;;;19.62;48.59;101474.56;4993828;28;20050;-70
2023/05/06 01:49:01;;;;;;;38.17;36.00;;;;;;;19.61;48.26;101475.69;4993733;28;20387;-71
2023/05/06 01:51:26;;;;;;;36.58;34.47;;;;;;;19.60;48.63;101482.25;4994072;28;20038;-70
2023/05/06 01:53:52;;;;;;;36.42;34.53;;;;;;;19.59;48.19;101483.38;4976346;28;20038;-71
2023/05/06 01:56:17;;;;;;;37.85;35.65;;;;;;;19.58;48.58;101489.97;4993824;28;20039;-71
2023/05/06 01:58:42;;;;;;;37.72;35.72;;;;;;;19.57;48.32;101484.78;4993999;28;20332;-71
2023/05/06 02:01:08;;;;;;;38.85;36.70;;;;;;;19.56;48.21;101491.38;4976371;28;20031;-71
2023/05/06 02:03:33;;;;;;;37.92;35.78;;;;;;;19.54;48.45;101490.81;4993446;28;20041;-72
2023/05/06 02:05:59;;;;;;;37.10;35.10;;;;;;;19.52;48.24;101485.63;4993705;28;20169;-70
2023/05/06 02:08:24;;;;;;;37.67;35.67;;;;;;;19.51;48.74;101485.94;4993604;28;20434;-71
2023/05/06 02:10:50;;;;;;;37.88;35.67;;;;;;;19.49;48.25;101491.69;4975922;28;20117;-71
2023/05/06 02:13:18;;;;;;;38.70;36.50;;;;;;;19.48;48.58;101492.78;4994802;28;20045;-72
2023/05/06 02:15:43;;;;;;;36.30;34.30;;;;;;;19.47;48.55;101504.84;4997343;28;20501;-71
2023/05/06 02:18:10;;;;;;;36.88;34.78;;;;;;;19.45;48.75;101499.66;4997319;28;20113;-73
2023/05/06 02:20:35;;;;;;;39.00;36.80;;;;;;;19.43;48.69;101495.56;4997286;28;20038;-71
2023/05/06 02:23:00;;;;;;;38.15;36.10;;;;;;;19.41;48.38;101495.84;4997491;28;20105;-72
2023/05/06 02:25:26;;;;;;;36.83;34.83;;;;;;;19.40;48.53;101494.22;4996940;28;20054;-71
2023/05/06 02:27:51;;;;;;;36.92;35.00;;;;;;;19.40;48.25;101501.59;4997176;28;20034;-71
2023/05/06 02:30:17;;;;;;;36.83;34.78;;;;;;;19.38;48.42;101498.34;4979598;28;20089;-72
2023/05/06 02:32:42;;;;;;;36.38;34.38;;;;;;;19.37;48.62;101502.97;4997149;28;20088;-72
2023/05/06 02:35:08;;;;;;;37.60;35.50;;;;;;;19.34;48.60;101498.06;4979384;28;20046;-71
2023/05/06 02:37:33;;;;;;;37.50;35.50;;;;;;;19.33;48.23;101503.84;4996924;28;20041;-71
2023/05/06 02:39:59;;;;;;;37.83;35.72;;;;;;;19.32;48.24;101496.72;4979481;28;20093;-71
2023/05/06 02:42:24;;;;;;;37.42;35.42;;;;;;;19.31;48.58;101492.34;4996804;28;20470;-72
2023/05/06 02:44:50;;;;;;;36.60;34.50;;;;;;;19.29;48.26;101486.34;4997109;28;20422;-71
2023/05/06 02:47:15;;;;;;;36.97;34.88;;;;;;;19.28;48.50;101490.16;4996673;28;20031;-71
2023/05/06 02:49:41;;;;;;;36.00;34.10;;;;;;;19.25;48.29;101486.06;4996514;28;20031;-70
2023/05/06 02:52:06;;;;;;;36.03;34.03;;;;;;;19.23;48.55;101489.09;4996975;28;20030;-72
2023/05/06 02:54:31;;;;;;;35.42;33.58;;;;;;;19.22;48.62;101492.91;4996889;28;20041;-71
2023/05/06 02:56:57;;;;;;;35.90;34.00;;;;;;;19.21;48.29;101490.47;4996561;28;20062;-70
2023/05/06 02:59:22;;;;;;;36.67;34.67;;;;;;;19.19;48.65;101484.47;4996505;28;20041;-70
2023/05/06 03:01:48;;;;;;;34.97;33.17;;;;;;;19.17;48.52;101490.22;4996540;28;20398;-71
2023/05/06 03:04:13;;;;;;;37.42;35.30;;;;;;;19.15;48.41;101494.34;4996423;28;20387;-72
2023/05/06 03:06:39;;;;;;;34.90;33.00;;;;;;;19.14;48.24;101481.75;4996385;28;20086;-70
2023/05/06 03:09:04;;;;;;;37.42;35.42;;;;;;;19.12;48.31;101481.22;4996291;28;20042;-70
2023/05/06 03:11:31;;;;;;;36.50;34.50;;;;;;;19.11;48.24;101480.41;4996304;28;20041;-70
2023/05/06 03:13:57;;;;;;;35.65;33.67;;;;;;;19.10;48.73;101475.19;4996962;28;20403;-70
2023/05/06 03:16:23;;;;;;;37.25;35.10;;;;;;;19.08;48.13;101475.50;4996210;28;20085;-69
2023/05/06 03:18:48;;;;;;;35.10;33.10;;;;;;;19.06;48.19;101464.00;4996215;28;20034;-70
2023/05/06 03:21:14;;;;;;;36.88;34.78;;;;;;;19.06;48.44;101474.13;4996147;28;20038;-72
2023/05/06 03:23:39;;;;;;;36.90;34.80;;;;;;;19.02;48.51;101469.22;4996101;28;20088;-69
2023/05/06 03:26:05;;;;;;;36.72;34.53;;;;;;;19.02;48.33;101468.38;4995740;28;20046;-70
2023/05/06 03:28:30;;;;;;;38.22;35.95;;;;;;;19.00;48.18;101471.44;4996201;28;20476;-69
2023/05/06 03:30:55;;;;;;;35.13;33.22;;;;;;;18.99;48.52;101471.69;4996290;28;20057;-71
2023/05/06 03:33:21;;;;;;;36.83;34.58;;;;;;;18.97;48.58;101469.22;4978435;28;20035;-71
2023/05/06 03:35:46;;;;;;;35.05;33.05;;;;;;;18.96;48.52;101473.06;4978538;28;20084;-73
2023/05/06 03:38:12;;;;;;;35.58;33.70;;;;;;;18.95;48.63;101471.47;4995501;28;20034;-74
2023/05/06 03:40:37;;;;;;;36.63;34.25;;;;;;;18.93;48.30;101473.66;4996143;28;20030;-72
2023/05/06 03:43:03;;;;;;;35.35;33.35;;;;;;;18.92;48.51;101469.25;4995847;28;20038;-72
2023/05/06 03:45:28;;;;;;;36.30;34.20;;;;;;;18.90;48.55;101468.75;4995694;28;20122;-72
2023/05/06 03:47:53;;;;;;;34.05;32.15;;;;;;;18.89;48.51;101472.56;4995763;28;20034;-72
2023/05/06 03:50:19;;;;;;;35.70;33.60;;;;;;;18.86;48.14;101481.34;4995633;28;20033;-71
2023/05/06 03:52:44;;;;;;;33.85;32.05;;;;;;;18.85;48.13;101481.59;4978208;28;20050;-71
2023/05/06 03:55:10;;;;;;;35.33;33.45;;;;;;;18.84;48.22;101479.97;4995329;28;20042;-70
2023/05/06 03:57:35;;;;;;;36.30;34.20;;;;;;;18.82;48.07;101483.00;4995356;28;20114;-71
2023/05/06 04:00:01;;;;;;;35.92;33.92;;;;;;;18.80;48.58;101479.75;4995459;28;20030;-71
2023/05/06 04:02:28;;;;;;;35.65;33.53;;;;;;;18.79;48.34;101491.75;4995604;28;20048;-70
2023/05/06 04:04:53;;;;;;;34.50;32.65;;;;;;;18.77;48.59;101481.13;4978678;28;20070;-71
2023/05/06 04:07:19;;;;;;;34.88;32.95;;;;;;;18.75;48.23;101486.03;4995732;28;20065;-71
2023/05/06 04:09:44;;;;;;;34.55;32.63;;;;;;;18.74;48.49;101480.81;4995253;28;20117;-71
2023/05/06 04:12:10;;;;;;;33.95;32.05;;;;;;;18.73;48.25;101488.22;4961869;28;20042;-71
2023/05/06 04:14:35;;;;;;;33.72;32.00;;;;;;;18.72;48.63;101486.59;4995425;28;20026;-72
2023/05/06 04:17:00;;;;;;;33.83;31.92;;;;;;;18.71;48.51;101487.66;4995857;28;20042;-72
2023/05/06 04:19:26;;;;;;;34.20;32.15;;;;;;;18.69;48.07;101489.84;4995580;28;20030;-71
2023/05/06 04:21:51;;;;;;;36.00;34.00;;;;;;;18.68;48.51;101493.69;4995018;28;20117;-71
2023/05/06 04:24:17;;;;;;;36.30;34.28;;;;;;;18.67;48.47;101499.44;4994990;28;20030;-73
2023/05/06 04:26:42;;;;;;;34.47;32.58;;;;;;;18.65;48.06;101497.00;4995288;28;20467;-72
2023/05/06 04:29:08;;;;;;;34.13;32.30;;;;;;;18.64;48.30;101502.72;4994937;28;20049;-71
2023/05/06 04:31:35;;;;;;;35.47;33.47;;;;;;;18.63;48.62;101499.19;4977277;28;20058;-72
2023/05/06 04:34:01;;;;;;;34.53;32.53;;;;;;;18.62;48.46;101500.28;4977368;28;20038;-71
2023/05/06 04:36:27;;;;;;;35.20;33.17;;;;;;;18.59;48.17;101498.91;4994459;28;20065;-71
2023/05/06 04:38:52;;;;;;;35.53;33.53;;;;;;;18.58;48.07;101497.28;4977341;28;20048;-72
2023/05/06 04:41:19;;;;;;;35.03;33.13;;;;;;;18.57;48.14;101501.13;4994660;28;20139;-73
2023/05/06 04:43:45;;;;;;;35.10;32.85;;;;;;;18.56;48.33;101507.69;4994678;28;20523;-72
2023/05/06 04:46:10;;;;;;;34.25;32.30;;;;;;;18.56;48.46;101509.59;4977505;28;20133;-71
2023/05/06 04:48:36;;;;;;;34.70;32.50;;;;;;;18.54;48.11;101498.09;4994508;28;20031;-71
2023/05/06 04:51:05;;;;;;;34.15;32.17;;;;;;;18.53;48.16;101508.25;4994530;28;20356;-70
2023/05/06 04:53:31;;;;;;;34.45;32.40;;;;;;;18.51;48.06;101510.44;4994496;28;20490;-71
2023/05/06 04:55:56;;;;;;;33.80;31.80;;;;;;;18.50;48.16;101508.81;4994484;28;20057;-72
2023/05/06 04:58:22;;;;;;;34.15;32.22;;;;;;;18.49;48.23;101520.81;4994644;28;20061;-71
2023/05/06 05:00:47;;;;;;;33.33;31.42;;;;;;;18.47;48.43;101512.09;4994173;28;20117;-71
2023/05/06 05:03:13;;;;;;;33.28;31.48;;;;;;;18.47;48.39;101520.31;4994042;28;20076;-70
2023/05/06 05:05:38;;;;;;;36.17;33.90;;;;;;;18.45;48.52;101519.75;4960907;28;20092;-73
2023/05/06 05:08:04;;;;;;;32.63;30.70;;;;;;;18.45;48.00;101527.16;4976541;28;20482;-71
2023/05/06 05:10:29;;;;;;;35.42;33.42;;;;;;;18.43;48.34;101527.41;4994131;28;20072;-71
2023/05/06 05:12:55;;;;;;;33.22;31.08;;;;;;;18.43;48.26;101518.41;4994250;28;20034;-71
2023/05/06 05:15:20;;;;;;;32.17;30.48;;;;;;;18.41;48.38;101521.41;4994468;28;20045;-72
2023/05/06 05:17:46;;;;;;;33.13;31.02;;;;;;;18.41;48.08;101529.59;4994113;28;20030;-72
2023/05/06 05:20:11;;;;;;;33.20;31.30;;;;;;;18.39;48.50;101523.56;4994167;28;20037;-72
2023/05/06 05:22:37;;;;;;;34.85;32.55;;;;;;;18.38;48.43;101516.47;4994576;28;20054;-72
2023/05/06 05:25:03;;;;;;;33.60;31.70;;;;;;;18.37;48.36;101526.59;4994061;28;20137;-71
2023/05/06 05:27:28;;;;;;;33.42;31.50;;;;;;;18.38;48.56;101524.69;4994839;28;20046;-71
2023/05/06 05:29:54;;;;;;;29.77;28.17;;;;;;;18.36;48.07;101535.06;4976689;28;20038;-72
2023/05/06 05:32:20;;;;;;;32.85;30.90;;;;;;;18.34;48.59;101529.91;4994380;28;20504;-72
2023/05/06 05:34:46;;;;;;;33.65;31.80;;;;;;;18.34;48.26;101545.47;4993852;28;20109;-72
2023/05/06 05:37:11;;;;;;;34.15;32.17;;;;;;;18.34;48.40;101542.72;4994103;28;20040;-72
2023/05/06 05:39:36;;;;;;;32.75;30.85;;;;;;;18.32;48.52;101545.75;4993628;28;20113;-73
2023/05/06 05:42:02;;;;;;;32.30;30.40;;;;;;;18.32;48.24;101544.91;4993656;28;20030;-73
2023/05/06 05:44:28;;;;;;;33.47;31.60;;;;;;;18.31;48.13;101540.56;4976502;28;20030;-71
2023/05/06 05:46:53;;;;;;;32.15;30.45;;;;;;;18.29;48.39;101535.34;4994593;28;20449;-72
2023/05/06 05:49:19;;;;;;;33.53;31.63;;;;;;;18.29;48.21;101537.28;4964321;28;20056;-71
2023/05/06 05:51:44;;;;;;;34.83;32.78;;;;;;;18.29;48.16;101537.28;4980416;28;20092;-71
2023/05/06 05:54:10;;;;;;;31.48;29.67;;;;;;;18.28;48.13;101541.94;4997824;28;20554;-71
2023/05/06 05:56:35;;;;;;;33.42;31.48;;;;;;;18.28;48.45;101544.66;4997890;28;20375;-72
2023/05/06 05:59:00;;;;;;;33.20;31.30;;;;;;;18.28;48.40;101538.38;4997679;28;20050;-72
2023/05/06 06:01:26;;;;;;;35.25;33.00;;;;;;;18.28;48.12;101544.66;4997818;28;20117;-71
2023/05/06 06:03:53;;;;;;;34.75;32.25;;;;;;;18.27;48.44;101534.84;4997625;28;20459;-71
2023/05/06 06:06:18;;;;;;;32.17;30.10;;;;;;;18.28;48.50;101538.38;4997432;28;20034;-71
2023/05/06 06:08:44;;;;;;;32.80;30.80;;;;;;;18.28;48.39;101544.66;4997428;28;20044;-71
2023/05/06 06:11:10;;;;;;;32.45;30.65;;;;;;;18.28;48.39;101541.94;4997480;28;20489;-70
2023/05/06 06:13:35;;;;;;;33.38;31.20;;;;;;;18.29;48.41;101545.47;4980230;28;20375;-71
2023/05/06 06:16:01;;;;;;;33.78;31.77;;;;;;;18.30;48.14;101547.13;4997374;28;20045;-72
2023/05/06 06:18:26;;;;;;;32.33;30.60;;;;;;;18.30;48.20;101545.22;4997366;28;20085;-72
2023/05/06 06:20:51;;;;;;;31.25;29.55;;;;;;;18.30;48.46;101555.34;4997255;28;20491;-71
2023/05/06 06:23:17;;;;;;;32.30;30.50;;;;;;;18.31;48.18;101548.75;4997014;28;20071;-72
2023/05/06 06:25:42;;;;;;;33.95;31.73;;;;;;;18.31;48.44;101546.84;4979178;28;20146;-71
2023/05/06 06:28:08;;;;;;;33.50;31.50;;;;;;;18.32;48.53;101550.38;4997424;28;20034;-72
2023/05/06 06:30:34;;;;;;;34.58;32.42;;;;;;;18.33;48.14;101552.03;4980081;28;20042;-72
2023/05/06 06:33:00;;;;;;;34.30;32.40;;;;;;;18.34;48.23;101549.06;4996862;28;20066;-72
2023/05/06 06:35:26;;;;;;;35.17;32.88;;;;;;;18.35;48.08;101552.59;4997165;28;20496;-73
2023/05/06 06:37:52;;;;;;;32.15;30.38;;;;;;;18.36;48.22;101555.03;4997570;28;20077;-74
2023/05/06 06:40:18;;;;;;;32.58;30.75;;;;;;;18.36;47.89;101551.50;4997742;28;20394;-71
2023/05/06 06:42:43;;;;;;;33.40;31.52;;;;;;;18.37;48.41;101556.69;4997009;28;20022;-72
2023/05/06 06:45:09;;;;;;;31.88;29.98;;;;;;;18.37;48.49;101553.97;4996907;28;20035;-73
2023/05/06 06:47:35;;;;;;;32.13;30.40;;;;;;;18.38;48.21;101555.59;4996825;28;20038;-73
2023/05/06 06:50:00;;;;;;;33.42;31.35;;;;;;;18.41;48.56;101558.88;4979639;28;20092;-72
2023/05/06 06:52:26;;;;;;;31.35;29.45;;;;;;;18.41;48.40;101553.41;4996777;28;20480;-71
2023/05/06 06:54:51;;;;;;;32.58;30.67;;;;;;;18.42;48.32;101555.88;4996548;28;20481;-71
2023/05/06 06:57:17;;;;;;;31.67;29.85;;;;;;;18.44;48.39;101561.88;4996943;28;20463;-71
2023/05/06 06:59:42;;;;;;;34.35;32.45;;;;;;;18.46;48.31;101561.59;4996227;28;20115;-71
2023/05/06 07:02:07;;;;;;;34.38;32.25;;;;;;;18.48;48.24;101564.88;4999486;28;20035;-78
2023/05/06 07:04:33;;;;;;;37.03;34.55;;;;;;;18.51;48.61;101559.66;4950765;28;20372;-75
2023/05/06 07:06:58;;;;;;;33.45;31.10;;;;;;;18.53;48.74;101557.50;4997442;28;20030;-69
2023/05/06 07:09:24;;;;;;;36.58;33.67;;;;;;;18.57;49.04;101560.47;4996461;28;20037;-69
2023/05/06 07:11:49;;;;;;;36.58;34.03;;;;;;;18.59;48.80;101556.38;4996306;28;20031;-70
2023/05/06 07:14:14;;;;;;;34.97;32.17;;;;;;;18.62;49.33;101560.47;4979154;28;20112;-70
2023/05/06 07:16:40;;;;;;;36.53;33.95;;;;;;;18.67;48.91;101562.38;4996133;28;20034;-70
2023/05/06 07:19:05;;;;;;;35.45;33.25;;;;;;;18.70;49.18;101561.84;4978656;28;20068;-69
2023/05/06 07:21:31;;;;;;;34.60;32.42;;;;;;;18.73;48.95;101564.84;4996141;28;20104;-74
2023/05/06 07:23:57;;;;;;;37.08;34.58;;;;;;;18.77;49.27;101559.66;4978889;28;20529;-70
2023/05/06 07:26:23;;;;;;;36.38;33.63;;;;;;;18.79;49.31;101563.75;4997075;28;20082;-70
2023/05/06 07:28:48;;;;;;;36.30;33.50;;;;;;;18.83;48.97;101565.94;4995898;28;20089;-68
2023/05/06 07:31:15;;;;;;;37.30;34.97;;;;;;;18.86;49.20;101571.69;4978670;28;20031;-70
2023/05/06 07:33:41;;;;;;;36.25;33.90;;;;;;;18.90;49.66;101572.75;4995888;28;20387;-70
2023/05/06 07:36:07;;;;;;;36.10;33.55;;;;;;;18.93;49.15;101568.66;4978486;28;20578;-70
2023/05/06 07:38:32;;;;;;;38.22;35.65;;;;;;;18.96;49.24;101577.13;4995870;28;20034;-70
2023/05/06 07:40:57;;;;;;;39.20;36.25;;;;;;;19.01;49.43;101573.53;4996223;28;20034;-69
2023/05/06 07:43:23;;;;;;;35.97;33.58;;;;;;;19.04;49.30;101578.47;4978419;28;20545;-69
2023/05/06 07:45:48;;;;;;;38.45;35.75;;;;;;;19.07;49.34;101569.69;4995530;28;20026;-70
2023/05/06 07:48:14;;;;;;;35.88;33.75;;;;;;;19.11;49.63;101568.03;4978261;28;20038;-70
2023/05/06 07:50:39;;;;;;;35.80;33.50;;;;;;;19.16;49.41;101567.19;4995590;28;20084;-70
2023/05/06 07:53:05;;;;;;;41.22;38.10;;;;;;;19.21;49.70;101567.97;4978147;28;20038;-70
2023/05/06 07:55:30;;;;;;;38.22;35.85;;;;;;;19.26;49.96;101564.41;4995817;28;20062;-69
2023/05/06 07:57:55;;;;;;;37.38;35.08;;;;;;;19.31;49.65;101558.91;4995229;28;20026;-70
2023/05/06 08:00:21;;;;;;;36.10;33.88;;;;;;;19.36;49.79;101569.84;4995717;28;20031;-70
2023/05/06 08:02:47;;;;;;;40.60;38.00;;;;;;;19.41;49.59;101567.06;4995583;28;20058;-70
2023/05/06 08:05:13;;;;;;;38.33;36.00;;;;;;;19.46;50.00;101563.50;4995044;28;20026;-71
2023/05/06 08:07:42;;;;;;;40.05;37.08;;;;;;;19.52;49.70;101569.75;4995347;28;20027;-71
2023/05/06 08:10:08;;;;;;;37.30;34.63;;;;;;;19.56;49.64;101568.91;4977239;28;20027;-70
2023/05/06 08:12:34;;;;;;;38.97;36.30;;;;;;;19.62;50.18;101567.75;4994646;28;20026;-69
2023/05/06 08:15:00;;;;;;;44.40;40.15;;;;;;;19.68;50.01;101568.59;4995614;28;20041;-70
2023/05/06 08:17:26;;;;;;;39.47;36.25;;;;;;;19.74;50.18;101575.69;4977769;28;20038;-70
2023/05/06 08:19:51;;;;;;;40.85;37.75;;;;;;;19.80;49.99;101573.72;4995006;28;20363;-70
2023/05/06 08:22:16;;;;;;;40.47;37.72;;;;;;;19.88;50.43;101581.31;4995552;28;20041;-69
2023/05/06 08:24:42;;;;;;;40.38;36.88;;;;;;;19.93;50.08;101567.59;4994831;28;20113;-70
2023/05/06 08:27:07;;;;;;;40.35;37.42;;;;;;;20.00;50.65;101564.53;4995509;28;20077;-71
2023/05/06 08:29:33;;;;;;;41.80;38.20;;;;;;;20.05;50.73;101568.03;4994968;28;20034;-70
2023/05/06 08:32:05;;;;;;;40.83;37.97;;;;;;;20.12;50.18;101564.16;5096765;27;1437662;-70
2023/05/06 08:34:30;;;;;;;39.88;36.85;;;;;;;20.20;50.76;101571.78;5128827;27;20425;-71
2023/05/06 08:36:56;;;;;;;42.65;39.40;;;;;;;20.26;50.37;101568.72;5128969;28;20459;-70
2023/05/06 08:39:21;;;;;;;41.67;38.55;;;;;;;20.32;50.33;101562.06;5128144;28;20442;-71
2023/05/06 08:41:49;;;;;;;44.10;40.58;;;;;;;20.41;50.55;101566.91;5125246;28;20394;-69
2023/05/06 08:44:17;;;;;;;44.15;40.80;;;;;;;20.46;50.37;101566.84;5128488;27;20031;-70
2023/05/06 08:46:46;;;;;;;46.70;43.15;;;;;;;20.55;50.89;101567.91;5121863;28;20054;-70
2023/05/06 08:49:12;;;;;;;50.20;45.97;;;;;;;20.62;50.52;101562.09;5125562;27;20087;-71
2023/05/06 08:51:40;;;;;;;44.88;41.97;;;;;;;20.70;50.82;101554.03;5119470;28;20043;-70
2023/05/06 08:54:07;;;;;;;46.97;43.22;;;;;;;20.79;50.85;101553.38;5128643;27;20110;-70
2023/05/06 08:56:34;;;;;;;44.63;41.35;;;;;;;20.87;50.56;101552.75;5117105;28;20418;-71
2023/05/06 08:59:00;;;;;;;45.08;42.13;;;;;;;20.95;50.60;101555.66;5128771;27;20034;-69
2023/05/06 09:01:26;;;;;;;49.42;45.65;;;;;;;21.03;51.13;101556.94;5129406;27;20035;-70
2023/05/06 09:03:53;;;;;;;47.00;43.65;;;;;;;21.11;51.04;101552.72;5128602;27;20023;-70
2023/05/06 09:06:18;;;;;;;46.88;43.22;;;;;;;21.20;51.17;101547.41;5118335;27;20036;-71
2023/05/06 09:08:44;;;;;;;44.20;40.95;;;;;;;21.28;51.18;101552.25;5129229;28;20417;-71
2023/05/06 09:11:28;;;;;;;45.13;42.22;;;;;;;21.35;50.91;101542.53;5121568;28;20074;-71
2023/05/06 09:14:13;;;;;;;48.08;44.10;;;;;;;21.42;50.77;101544.09;5110303;28;20085;-71
2023/05/06 09:16:41;;;;;;;45.80;42.55;;;;;;;21.50;50.75;101552.50;5125579;27;20034;-70
2023/05/06 09:19:06;;;;;;;46.60;43.25;;;;;;;21.58;50.84;101549.09;5119384;28;20032;-70
2023/05/06 09:21:34;;;;;;;46.97;43.75;;;;;;;21.68;50.78;101544.56;5108387;28;20050;-71
2023/05/06 09:23:59;;;;;;;47.55;44.17;;;;;;;21.76;50.68;101546.63;5118285;28;20027;-70
2023/05/06 09:26:27;;;;;;;46.25;43.35;;;;;;;21.85;51.30;101546.75;5126639;27;20510;-70
2023/05/06 09:28:52;;;;;;;49.35;45.88;;;;;;;21.92;51.23;101545.25;5126423;27;20032;-67
2023/05/06 09:31:18;;;;;;;47.28;44.10;;;;;;;22.00;51.00;101547.34;5127142;28;20433;-71
2023/05/06 09:33:43;;;;;;;49.33;46.22;;;;;;;22.09;50.71;101541.16;5119221;28;20364;-72
2023/05/06 09:36:12;;;;;;;50.05;46.78;;;;;;;22.16;50.82;101538.84;5115710;28;20100;-72
2023/05/06 09:38:41;;;;;;;48.17;45.10;;;;;;;22.24;50.77;101540.91;5123370;28;20043;-73
2023/05/06 09:41:07;;;;;;;50.42;47.08;;;;;;;22.32;51.22;101544.91;5128272;27;20449;-73
2023/05/06 09:43:33;;;;;;;50.55;47.55;;;;;;;22.39;50.94;101545.34;5113933;27;20092;-73
2023/05/06 09:46:02;;;;;;;50.50;47.08;;;;;;;22.46;51.20;101537.50;5114008;28;20027;-73
2023/05/06 09:48:29;;;;;;;50.85;47.53;;;;;;;22.54;51.02;101538.75;5101471;28;20109;-74
2023/05/06 09:50:55;;;;;;;50.20;47.03;;;;;;;22.61;50.91;101534.47;5096720;28;20511;-72
2023/05/06 09:53:22;;;;;;;50.08;47.08;;;;;;;22.67;50.92;101535.97;5101911;28;20038;-72
2023/05/06 09:55:48;;;;;;;50.63;47.63;;;;;;;22.75;50.64;101531.69;5099283;28;20483;-72
2023/05/06 09:58:15;;;;;;;51.15;48.33;;;;;;;22.83;50.98;101535.66;5103134;28;20042;-75
2023/05/06 10:00:42;;;;;;;49.85;46.97;;;;;;;22.91;50.88;101529.47;5097705;28;20028;-73
2023/05/06 10:03:10;;;;;;;51.90;48.97;;;;;;;22.98;50.44;101526.31;5113633;28;20131;-73
2023/05/06 10:05:36;;;;;;;49.63;46.67;;;;;;;23.05;50.68;101529.47;5112654;28;20428;-72
2023/05/06 10:08:06;;;;;;;51.58;48.78;;;;;;;23.10;50.70;101524.66;5110846;28;21724;-71
2023/05/06 10:10:33;;;;;;;49.60;46.65;;;;;;;23.18;50.70;101531.38;5101945;28;20023;-71
2023/05/06 10:13:02;;;;;;;51.10;48.10;;;;;;;23.24;50.58;101535.69;5112892;27;20036;-71
2023/05/06 10:15:28;;;;;;;51.72;49.03;;;;;;;23.31;50.81;101527.00;5101982;28;20081;-71
2023/05/06 10:17:54;;;;;;;53.20;50.17;;;;;;;23.38;50.45;101523.81;5113786;28;20027;-71
2023/05/06 10:20:23;;;;;;;52.10;49.03;;;;;;;23.44;50.46;101520.63;5108462;28;20031;-70
2023/05/06 10:22:51;;;;;;;;;;;;;;;23.51;50.26;101518.25;5094636;28;20106;-70
2023/05/06 10:25:36;;;;;;;48.70;46.17;;;;;;;23.55;50.33;101521.19;5092962;28;20724;-70
2023/05/06 10:28:06;;;;;;;53.10;50.03;;;;;;;23.59;50.35;101511.19;5097993;28;20115;-70
2023/05/06 10:30:35;;;;;;;51.20;48.53;;;;;;;23.65;50.46;101523.72;5113060;28;20051;-70
2023/05/06 10:33:06;;;;;;;56.67;53.80;;;;;;;23.70;50.54;101517.25;5106938;28;20051;-71
2023/05/06 10:35:44;;;;;;;54.15;51.17;;;;;;;23.76;50.24;101507.75;5109637;28;20042;-70
2023/05/06 10:38:35;;;;;;;54.97;51.85;;;;;;;23.82;50.62;101511.22;5110982;28;20024;-70
2023/05/06 10:41:01;;;;;;;52.20;49.45;;;;;;;23.89;50.66;101506.91;5109548;28;20050;-70
2023/05/06 10:43:29;;;;;;;53.97;50.95;;;;;;;23.94;50.59;101505.97;5107680;28;20028;-70
2023/05/06 10:46:14;;;;;;;53.55;50.85;;;;;;;23.98;50.40;101501.41;5098588;28;20028;-71
2023/05/06 10:49:09;;;;;;;52.80;50.13;;;;;;;24.04;50.52;101508.44;5101039;28;20107;-71
2023/05/06 10:51:39;;;;;;;54.85;51.90;;;;;;;24.08;50.11;101494.81;5113700;28;20030;-70
2023/05/06 10:54:06;;;;;;;59.13;56.10;;;;;;;24.13;49.98;101500.22;5111462;28;20035;-71
2023/05/06 10:56:35;;;;;;;54.63;51.65;;;;;;;24.16;50.32;101494.84;5106258;28;20097;-71
2023/05/06 10:59:09;;;;;;;55.00;52.28;;;;;;;24.21;50.26;101493.91;5112387;28;20031;-70
2023/05/06 11:01:39;;;;;;;54.20;51.60;;;;;;;24.26;50.20;101490.22;5113531;28;20132;-71
2023/05/06 11:04:06;;;;;;;52.70;50.08;;;;;;;24.30;50.05;101491.22;5106996;28;20035;-70
2023/05/06 11:06:33;;;;;;;55.30;52.40;;;;;;;24.34;49.75;101486.66;5112992;28;20035;-71
2023/05/06 11:09:00;;;;;;;55.97;53.03;;;;;;;24.38;49.97;101499.53;5110507;28;20580;-71